Time;durP1;ratioP1;P1;durP2;ratioP2;P2;SDS_P1;SDS_P2;PMS_P1;PMS_P2;Temp;Humidity;BMP_temperature;BMP_pressure;BME280_temperature;BME280_humidity;BME280_pressure;Samples;Min_cycle;Max_cycle;Signal;HPM_P1;HPM_P2
2022/11/11 00:01:39;;;;;;;7.00;3.20;;;10.50;99.90;;;10.48;100.00;102378.22;5176938;28;20446;-89
2022/11/11 00:04:32;;;;;;;7.38;2.90;;;10.50;99.90;;;10.50;100.00;102376.63;5174023;28;20533;-89
2022/11/11 00:07:22;;;;;;;7.00;3.17;;;10.50;99.90;;;10.48;100.00;102362.59;5174183;28;20046;-89
2022/11/11 00:10:13;;;;;;;7.10;2.80;;;10.50;99.90;;;10.47;100.00;102366.00;5176423;28;20104;-88
2022/11/11 00:13:05;;;;;;;8.00;3.50;;;10.50;99.90;;;10.45;100.00;102375.44;5180575;28;20061;-89
2022/11/11 00:15:56;;;;;;;11.00;3.40;;;10.50;99.90;;;10.39;100.00;102369.88;5178755;28;20101;-89
2022/11/11 00:25:08;;;;;;;7.68;3.40;;;10.40;99.90;;;10.29;100.00;102351.84;5178188;28;20050;-89
2022/11/11 00:27:58;;;;;;;7.63;3.65;;;10.40;99.90;;;10.26;100.00;102356.91;5177144;28;20053;-89
2022/11/11 00:30:49;;;;;;;9.52;3.90;;;10.30;99.90;;;10.20;100.00;102372.13;5176821;28;20121;-90
2022/11/11 00:33:40;;;;;;;6.78;3.53;;;10.30;99.90;;;10.21;100.00;102376.53;5186898;28;20050;-90
2022/11/11 00:36:31;;;;;;;9.63;3.40;;;10.30;99.90;;;10.16;100.00;102371.03;5191077;28;20061;-89
2022/11/11 00:39:23;;;;;;;7.68;3.60;;;10.20;99.90;;;10.15;100.00;102370.94;5186873;28;20102;-90
2022/11/11 00:42:14;;;;;;;9.32;3.42;;;10.20;99.90;;;10.13;100.00;102362.13;5180633;28;20069;-91
2022/11/11 00:45:07;;;;;;;9.80;3.45;;;10.20;99.90;;;10.12;100.00;102363.84;5177476;28;20117;-90
2022/11/11 00:51:07;;;;;;;7.47;3.15;;;10.20;99.90;;;10.11;100.00;102389.81;5175836;28;20114;-91
2022/11/11 00:53:57;;;;;;;7.40;3.03;;;10.10;99.90;;;10.10;100.00;102399.31;5176797;28;20065;-90
2022/11/11 00:56:49;;;;;;;6.15;3.30;;;10.10;99.90;;;10.09;100.00;102397.50;5177243;28;20085;-89
2022/11/11 00:59:40;;;;;;;6.43;2.92;;;10.10;99.90;;;10.10;100.00;102403.63;5176613;28;20122;-89
2022/11/11 01:02:31;;;;;;;6.93;3.25;;;10.10;99.90;;;10.04;100.00;102397.25;5177175;28;20053;-89
2022/11/11 01:05:22;;;;;;;8.35;2.88;;;10.10;99.90;;;10.03;100.00;102403.25;5178964;28;20105;-90
2022/11/11 01:08:12;;;;;;;6.65;2.95;;;10.10;99.90;;;10.02;100.00;102398.84;5177240;28;20468;-90
2022/11/11 01:11:03;;;;;;;5.75;2.90;;;10.10;99.90;;;10.03;100.00;102410.16;5177056;28;20065;-89
2022/11/11 01:13:55;;;;;;;7.18;3.17;;;10.10;99.90;;;9.99;100.00;102395.16;5176603;28;20056;-89
2022/11/11 01:16:46;;;;;;;9.50;3.58;;;10.00;99.90;;;9.96;100.00;102393.25;5175945;28;20064;-89
2022/11/11 01:19:37;;;;;;;9.95;3.63;;;10.00;99.90;;;9.90;100.00;102392.84;5175658;28;20069;-90
2022/11/11 01:22:29;;;;;;;7.47;3.72;;;9.90;99.90;;;9.87;100.00;102395.28;5176048;28;20141;-89
2022/11/11 01:25:20;;;;;;;7.07;2.95;;;9.90;99.90;;;9.88;100.00;102396.19;5176273;28;20060;-89
2022/11/11 01:28:11;;;;;;;10.70;4.05;;;9.90;99.90;;;9.85;100.00;102391.69;5176313;28;20484;-89
2022/11/11 01:31:05;;;;;;;10.25;3.47;;;9.90;99.90;;;9.87;100.00;102397.88;5177749;28;20061;-89
2022/11/11 01:33:56;;;;;;;;;;;9.90;99.90;;;9.85;100.00;102402.13;5178810;28;20065;-88
2022/11/11 01:36:47;;;;;;;8.88;3.17;;;9.90;99.90;;;9.88;100.00;102410.09;5179174;28;20402;-90
2022/11/11 01:39:38;;;;;;;7.22;2.85;;;9.90;99.90;;;9.84;100.00;102399.38;5179357;28;20055;-89
2022/11/11 01:42:28;;;;;;;7.80;3.17;;;9.90;99.90;;;9.88;100.00;102402.28;5177185;28;20057;-89
2022/11/11 01:45:49;;;;;;;7.97;3.15;;;9.90;99.90;;;9.86;100.00;102398.69;5177966;28;20132;-89
2022/11/11 01:52:02;;;;;;;10.35;3.10;;;9.90;99.90;;;9.87;100.00;102412.63;5177049;28;20145;-91
2022/11/11 01:54:58;;;;;;;7.00;3.03;;;9.90;99.90;;;9.84;100.00;102418.50;5175067;28;20069;-90
2022/11/11 01:57:54;;;;;;;5.47;3.03;;;9.90;99.90;;;9.82;100.00;102414.91;5174282;28;20050;-89
2022/11/11 02:00:45;;;;;;;7.53;2.88;;;9.90;99.90;;;9.82;100.00;102422.75;5174582;28;20074;-91
2022/11/11 02:05:40;;;;;;;8.27;2.88;;;9.90;99.90;;;9.81;100.00;102420.94;5175248;28;20062;-90
2022/11/11 02:06:54;;;;;;;6.57;2.65;;;9.90;99.90;;;9.81;100.00;102415.72;5174535;28;20184;-90
2022/11/11 02:09:48;;;;;;;6.93;2.70;;;9.80;99.90;;;9.79;100.00;102417.34;5175322;28;20061;-89
2022/11/11 02:15:47;;;;;;;6.25;2.50;;;9.80;99.90;;;9.79;100.00;102417.34;5174936;28;20543;-91
2022/11/11 02:18:38;;;;;;;6.80;2.85;;;9.80;99.90;;;9.75;100.00;102410.13;5175883;28;20512;-89
2022/11/11 02:21:38;;;;;;;6.18;2.90;;;9.80;99.90;;;9.77;100.00;102411.13;5174081;28;20057;-91
2022/11/11 02:24:31;;;;;;;8.05;2.80;;;9.80;99.90;;;9.73;100.00;102407.44;5176166;28;20143;-89
2022/11/11 02:27:23;;;;;;;6.38;2.95;;;9.80;99.90;;;9.76;100.00;102414.53;5175641;28;20085;-89
2022/11/11 02:30:15;;;;;;;5.97;2.22;;;9.80;99.90;;;9.75;100.00;102411.03;5175343;28;20105;-90
2022/11/11 02:33:06;;;;;;;4.72;2.25;;;9.80;99.90;;;9.74;100.00;102414.44;5175156;28;20061;-91
2022/11/11 02:35:59;;;;;;;6.75;3.10;;;9.80;99.90;;;9.73;100.00;102406.53;5175399;28;20060;-90
2022/11/11 02:38:50;;;;;;;6.13;2.67;;;9.80;99.90;;;9.70;100.00;102409.81;5175529;28;20114;-89
2022/11/11 02:41:58;;;;;;;5.15;2.53;;;9.70;99.90;;;9.69;100.00;102407.13;5175265;28;20057;-89
2022/11/11 02:44:49;;;;;;;5.75;2.60;;;9.70;99.90;;;9.65;100.00;102408.66;5174965;28;20049;-89
2022/11/11 02:47:39;;;;;;;5.57;2.28;;;9.70;99.90;;;9.58;100.00;102405.53;5175511;28;20053;-89
2022/11/11 02:50:30;;;;;;;4.90;2.42;;;9.60;99.90;;;9.51;100.00;102410.34;5175851;28;20057;-90
2022/11/11 02:53:21;;;;;;;4.20;2.15;;;9.50;99.90;;;9.45;100.00;102409.03;5175988;28;20045;-90
2022/11/11 02:57:05;;;;;;;5.40;2.30;;;9.50;99.90;;;9.41;100.00;102399.25;5176126;28;20050;-90
2022/11/11 02:59:24;;;;;;;4.80;2.10;;;9.40;99.90;;;9.37;100.00;102405.06;5175692;28;20148;-90
2022/11/11 03:02:15;;;;;;;4.95;2.35;;;9.40;99.90;;;9.35;100.00;102401.47;5176813;28;20052;-90
2022/11/11 03:05:06;;;;;;;2.90;1.80;;;9.40;99.90;;;9.31;100.00;102404.66;5179362;28;20125;-91
2022/11/11 03:07:57;;;;;;;5.43;2.40;;;9.30;99.90;;;9.26;100.00;102406.97;5177764;28;20228;-90
2022/11/11 03:10:47;;;;;;;4.95;2.45;;;9.20;99.90;;;9.21;100.00;102410.97;5176317;28;20125;-89
2022/11/11 03:13:38;;;;;;;7.40;2.70;;;9.20;99.90;;;9.15;100.00;102401.06;5175288;28;20058;-90
2022/11/11 03:19:39;;;;;;;4.63;2.40;;;9.10;99.90;;;9.11;100.00;102411.16;5172980;28;20053;-89
2022/11/11 03:22:29;;;;;;;5.63;2.40;;;9.20;99.90;;;9.11;100.00;102405.94;5174265;28;20515;-89
2022/11/11 03:25:39;;;;;;;5.28;2.50;;;9.10;99.90;;;9.07;100.00;102404.88;5174789;28;20134;-91
2022/11/11 03:28:29;;;;;;;5.93;2.05;;;9.10;99.90;;;9.04;100.00;102415.03;5174606;28;20106;-89
2022/11/11 03:31:20;;;;;;;5.28;2.00;;;9.10;99.90;;;9.00;100.00;102418.25;5173738;28;20050;-90
2022/11/11 03:34:18;;;;;;;5.00;1.85;;;9.10;99.90;;;8.96;100.00;102411.94;5173919;28;20050;-89
2022/11/11 03:40:20;;;;;;;5.45;2.03;;;8.90;99.90;;;8.88;100.00;102417.44;5173875;28;20057;-89
2022/11/11 03:43:11;;;;;;;4.68;2.10;;;8.90;99.90;;;8.86;100.00;102424.22;5172777;28;20109;-90
2022/11/11 03:46:04;;;;;;;6.30;2.58;;;8.90;99.90;;;8.83;100.00;102419.72;5173085;28;20057;-90
2022/11/11 03:48:55;;;;;;;5.20;2.35;;;8.90;99.90;;;8.84;100.00;102421.50;5176938;28;20070;-90
2022/11/11 03:51:47;;;;;;;6.88;3.00;;;8.90;99.90;;;8.80;100.00;102414.31;5177405;28;20073;-90
2022/11/11 03:54:38;;;;;;;7.38;3.00;;;8.90;99.90;;;8.82;100.00;102419.63;5177827;28;20113;-90
2022/11/11 03:57:31;;;;;;;5.72;2.47;;;8.80;99.90;;;8.79;100.00;102417.69;5273409;23;20046;-72
2022/11/11 04:00:26;;;;;;;5.68;2.42;;;8.80;99.90;;;8.79;100.00;102412.50;5147295;28;20057;-72
2022/11/11 04:16:07;;;;;;;4.63;2.10;;;8.90;99.90;;;8.86;100.00;102421.59;5147260;28;20563;-74
2022/11/11 04:22:07;;;;;;;4.85;2.35;;;8.90;99.90;;;8.87;100.00;102418.25;5146831;28;20149;-74
2022/11/11 04:31:18;;;;;;;5.47;2.20;;;8.90;99.90;;;8.81;100.00;102415.22;5146867;28;20062;-73
2022/11/11 04:34:08;;;;;;;3.55;1.85;;;8.80;99.90;;;8.76;100.00;102414.91;5146748;28;20069;-73
2022/11/11 04:36:59;;;;;;;3.83;1.83;;;8.80;99.90;;;8.72;100.00;102412.88;5147063;28;20047;-74
2022/11/11 04:42:59;;;;;;;4.43;2.10;;;8.70;99.90;;;8.67;100.00;102406.47;5146470;28;20058;-72
2022/11/11 04:45:49;;;;;;;5.13;1.90;;;8.70;99.90;;;8.64;100.00;102416.66;5146998;28;20046;-71
2022/11/11 04:48:41;;;;;;;4.00;2.08;;;8.70;99.90;;;8.60;100.00;102419.84;5146846;28;20408;-73
2022/11/11 04:56:46;;;;;;;3.47;1.95;;;8.60;99.90;;;8.47;100.00;102428.50;5146022;28;20233;-73
2022/11/11 04:57:48;;;;;;;4.03;1.75;;;8.50;99.90;;;8.39;100.00;102425.38;5145271;28;20130;-74
2022/11/11 05:00:40;;;;;;;4.38;1.90;;;8.40;99.90;;;8.36;100.00;102427.78;5145957;28;20574;-74
2022/11/11 05:03:29;;;;;;;4.53;2.03;;;8.40;99.90;;;8.32;100.00;102422.22;5146148;28;20061;-72
2022/11/11 05:09:29;;;;;;;3.42;1.92;;;8.40;99.90;;;8.25;100.00;102428.66;5145891;28;20062;-73
2022/11/11 05:12:20;;;;;;;3.75;2.08;;;8.30;99.90;;;8.19;100.00;102430.84;5146219;28;20189;-75
2022/11/11 05:21:31;;;;;;;4.00;2.03;;;8.10;99.90;;;8.04;100.00;102446.25;5145929;28;20141;-73
2022/11/11 05:27:30;;;;;;;3.90;2.15;;;8.10;99.90;;;8.04;100.00;102440.16;5145773;28;20075;-73
2022/11/11 05:30:23;;;;;;;4.70;2.13;;;8.10;99.90;;;8.04;100.00;102440.16;5145956;28;20117;-74
2022/11/11 05:33:13;;;;;;;5.05;2.33;;;8.10;99.90;;;8.04;100.00;102427.16;5145683;28;20051;-74
2022/11/11 05:36:07;;;;;;;4.05;2.08;;;8.10;99.90;;;8.08;100.00;102431.75;5145697;28;20062;-74
2022/11/11 05:38:57;;;;;;;7.68;3.05;;;8.10;99.90;;;8.12;100.00;102423.41;5145535;28;20431;-73
2022/11/11 05:41:48;;;;;;;8.75;3.00;;;8.20;99.90;;;8.19;100.00;102425.66;5145590;28;20074;-73
2022/11/11 05:44:38;;;;;;;5.10;2.72;;;8.30;99.90;;;8.24;100.00;102426.88;5145437;28;20177;-73
2022/11/11 05:47:29;;;;;;;5.97;2.67;;;8.30;99.90;;;8.29;100.00;102432.41;5145580;28;20126;-73
2022/11/11 05:50:20;;;;;;;11.60;4.15;;;8.40;99.90;;;8.32;100.00;102436.09;5144893;28;20096;-74
2022/11/11 05:53:12;;;;;;;7.18;3.15;;;8.40;99.90;;;8.36;100.00;102438.16;5145146;28;20097;-72
2022/11/11 05:56:04;;;;;;;8.63;3.75;;;8.40;99.90;;;8.39;100.00;102445.25;5145190;28;20408;-72
2022/11/11 05:58:55;;;;;;;6.82;3.17;;;8.50;99.90;;;8.38;100.00;102446.97;5145262;28;20702;-73
2022/11/11 06:01:46;;;;;;;5.82;2.63;;;8.50;99.90;;;8.39;100.00;102446.16;5145333;28;20577;-72
2022/11/11 06:04:37;;;;;;;7.95;3.20;;;8.50;99.90;;;8.40;100.00;102452.25;5145003;28;20109;-73
2022/11/11 06:07:27;;;;;;;7.63;3.67;;;8.50;99.90;;;8.39;100.00;102447.84;5145196;28;20081;-75
2022/11/11 06:10:31;;;;;;;7.55;3.42;;;8.40;99.90;;;8.40;100.00;102453.16;5144692;28;20074;-71
2022/11/11 06:13:22;;;;;;;6.60;3.90;;;8.50;99.90;;;8.39;100.00;102453.06;5145144;28;20050;-72
2022/11/11 06:16:12;;;;;;;10.80;4.95;;;8.50;99.90;;;8.39;100.00;102453.94;5144770;28;20574;-72
2022/11/11 06:19:03;;;;;;;9.07;4.65;;;8.40;99.90;;;8.39;100.00;102466.06;5144964;28;20051;-72
2022/11/11 06:21:57;;;;;;;9.75;4.60;;;8.40;99.90;;;8.40;100.00;102460.94;5144788;28;20141;-72
2022/11/11 06:26:11;;;;;;;8.05;4.03;;;8.40;99.90;;;8.40;100.00;102473.94;5144872;28;20423;-73
2022/11/11 06:28:00;;;;;;;7.70;4.32;;;8.50;99.90;;;8.43;100.00;102476.78;5144417;28;20053;-72
2022/11/11 06:30:52;;;;;;;9.00;3.92;;;8.50;99.90;;;8.42;100.00;102480.19;5144303;28;20058;-72
2022/11/11 06:33:44;;;;;;;7.95;3.72;;;8.50;99.90;;;8.41;100.00;102490.44;5144371;28;20137;-74
2022/11/11 06:36:35;;;;;;;6.70;3.15;;;8.50;99.90;;;8.38;100.00;102490.25;5144325;28;20062;-73
2022/11/11 06:39:26;;;;;;;5.95;2.92;;;8.40;99.90;;;8.34;100.00;102493.38;5144324;28;20093;-71
2022/11/11 06:42:17;;;;;;;6.30;3.17;;;8.40;99.90;;;8.33;100.00;102508.06;5143845;28;20090;-72
2022/11/11 06:45:10;;;;;;;5.05;2.63;;;8.40;99.90;;;8.31;100.00;102504.47;5144244;28;20527;-72
2022/11/11 06:48:01;;;;;;;6.18;2.60;;;8.40;99.90;;;8.29;100.00;102511.25;5144408;28;20141;-74
2022/11/11 06:50:52;;;;;;;8.40;3.33;;;8.30;99.90;;;8.30;100.00;102509.56;5144209;28;20053;-74
2022/11/11 06:53:43;;;;;;;6.93;3.00;;;8.40;99.90;;;8.31;100.00;102513.94;5144329;28;20061;-74
2022/11/11 06:56:35;;;;;;;7.57;3.15;;;8.40;99.90;;;8.33;100.00;102525.34;5144323;28;20085;-71
2022/11/11 06:59:26;;;;;;;7.32;2.72;;;8.40;99.90;;;8.34;100.00;102517.66;5143692;28;20140;-71
2022/11/11 07:02:18;;;;;;;6.20;3.10;;;8.40;99.90;;;8.37;100.00;102515.31;5143997;28;20133;-72
2022/11/11 07:05:09;;;;;;;10.35;5.53;;;8.50;99.90;;;8.41;100.00;102525.16;5143053;28;20121;-58
2022/11/11 07:08:03;;;;;;;13.82;9.07;;;8.50;99.90;;;8.49;100.00;102520.50;5140639;28;20042;-57
2022/11/11 07:10:53;;;;;;;14.48;7.60;;;8.50;99.90;;;8.55;100.00;102510.53;5148076;28;20069;-58
2022/11/11 07:13:44;;;;;;;10.45;6.78;;;8.60;99.90;;;8.60;100.00;102516.94;5161663;28;20174;-59
2022/11/11 07:16:34;;;;;;;11.48;5.35;;;8.60;99.90;;;8.67;100.00;102511.38;5123902;29;20069;-58
2022/11/11 07:19:26;;;;;;;10.05;4.65;;;8.70;99.90;;;8.78;100.00;102511.22;5123688;29;20070;-59
2022/11/11 07:22:17;;;;;;;7.38;4.05;;;8.80;99.90;;;8.83;100.00;102512.44;5154733;28;20193;-57
2022/11/11 07:25:08;;;;;;;7.72;4.00;;;8.80;99.90;;;8.85;100.00;102511.75;5164469;28;20054;-56
2022/11/11 07:27:59;;;;;;;8.35;3.78;;;9.00;99.90;;;8.89;100.00;102518.97;5163315;28;20042;-57
2022/11/11 07:30:50;;;;;;;8.25;4.15;;;9.00;99.90;;;8.93;100.00;102504.44;5164173;28;20193;-58
2022/11/11 07:33:40;;;;;;;8.65;4.13;;;9.00;99.90;;;8.94;100.00;102509.78;5163746;28;20561;-57
2022/11/11 07:36:32;;;;;;;9.60;4.15;;;9.00;99.90;;;9.01;100.00;102513.72;5163491;28;20077;-60
2022/11/11 07:39:23;;;;;;;9.13;3.60;;;9.10;99.90;;;9.06;100.00;102521.81;5161656;28;20053;-57
2022/11/11 07:42:14;;;;;;;10.82;3.92;;;9.20;99.90;;;9.13;100.00;102529.25;5133559;28;20054;-58
2022/11/11 07:45:06;;;;;;;13.52;4.50;;;9.20;99.90;;;9.21;100.00;102525.47;5143341;28;20062;-56
2022/11/11 07:47:57;;;;;;;11.02;3.67;;;9.30;99.90;;;9.34;100.00;102527.19;5128758;28;20063;-58
2022/11/11 07:50:47;;;;;;;9.43;3.75;;;9.40;99.90;;;9.41;100.00;102527.69;5124575;29;20090;-57
2022/11/11 07:53:39;;;;;;;10.50;4.97;;;9.50;99.90;;;9.39;100.00;102531.91;5132939;28;20053;-58
2022/11/11 07:56:29;;;;;;;9.60;3.92;;;9.50;99.90;;;9.34;100.00;102530.69;5161244;28;20097;-58
2022/11/11 07:59:19;;;;;;;10.07;4.07;;;9.50;99.90;;;9.37;100.00;102543.91;5163761;28;20128;-58
2022/11/11 08:02:10;;;;;;;10.98;4.07;;;9.50;99.90;;;9.41;100.00;102545.94;5163575;28;20054;-58
2022/11/11 08:05:01;;;;;;;10.32;3.88;;;9.50;99.90;;;9.44;100.00;102553.03;5164220;28;20069;-60
2022/11/11 08:07:51;;;;;;;9.27;3.70;;;9.50;99.90;;;9.48;100.00;102553.34;5163991;28;20100;-59
2022/11/11 08:10:43;;;;;;;9.32;3.90;;;9.60;99.90;;;9.51;100.00;102558.75;5163709;28;20447;-58
2022/11/11 08:13:39;;;;;;;11.68;4.55;;;9.60;99.90;;;9.49;100.00;102565.56;5163541;28;20423;-57
2022/11/11 08:16:30;;;;;;;7.82;3.42;;;9.70;99.90;;;9.67;100.00;102565.00;5163819;28;20054;-55
2022/11/11 08:19:21;;;;;;;8.02;2.97;;;9.80;99.90;;;10.85;100.00;102563.94;5163568;28;20146;-57
2022/11/11 08:22:11;;;;;;;8.57;3.50;;;11.10;99.90;;;11.08;100.00;102559.22;5163672;28;20073;-58
2022/11/11 08:25:02;;;;;;;9.38;3.25;;;11.30;99.90;;;11.05;100.00;102562.56;5123733;29;20379;-56
2022/11/11 08:27:59;;;;;;;6.85;3.33;;;11.30;99.90;;;11.01;100.00;102563.16;5127241;28;20109;-55
2022/11/11 08:30:49;;;;;;;8.90;3.25;;;11.20;99.90;;;10.98;100.00;102564.72;5147278;28;20105;-55
2022/11/11 08:33:40;;;;;;;8.23;3.30;;;11.20;99.90;;;10.95;100.00;102565.41;5152681;28;20098;-56
2022/11/11 08:36:31;;;;;;;9.32;3.47;;;11.10;99.90;;;11.06;100.00;102566.06;5147305;28;20066;-57
2022/11/11 08:39:21;;;;;;;8.63;3.75;;;11.20;99.90;;;11.14;100.00;102564.81;5155110;28;20507;-55
2022/11/11 08:42:11;;;;;;;10.32;3.65;;;11.20;99.90;;;11.20;100.00;102559.97;5167191;28;20114;-56
2022/11/11 08:45:05;;;;;;;8.52;3.15;;;11.20;99.90;;;11.30;100.00;102569.28;5167377;28;20465;-55
2022/11/11 08:47:56;;;;;;;9.18;3.47;;;11.30;99.90;;;11.35;100.00;102563.53;5167198;28;20061;-56
2022/11/11 08:50:46;;;;;;;8.75;3.72;;;11.40;99.90;;;11.39;100.00;102564.59;5166765;28;20057;-55
2022/11/11 08:53:37;;;;;;;8.52;3.10;;;11.40;99.90;;;11.59;100.00;102563.16;5166916;28;20180;-57
2022/11/11 08:56:27;;;;;;;7.13;3.17;;;11.70;99.90;;;11.64;100.00;102572.16;5166328;28;20788;-58
2022/11/11 08:59:18;;;;;;;8.98;3.70;;;11.70;99.90;;;11.56;100.00;102576.94;5149376;28;20074;-57
2022/11/11 09:02:12;;;;;;;7.22;3.65;;;11.60;99.90;;;11.43;100.00;102571.81;5146504;28;20077;-60
2022/11/11 09:05:03;;;;;;;10.50;3.65;;;11.50;99.90;;;11.37;100.00;102571.44;5146200;28;20089;-59
2022/11/11 09:07:54;;;;;;;8.73;3.53;;;11.40;99.90;;;11.36;100.00;102575.75;5145582;28;20058;-57
2022/11/11 09:10:45;;;;;;;9.05;3.45;;;11.40;99.90;;;11.31;100.00;102576.28;5150026;28;20535;-58
2022/11/11 09:13:35;;;;;;;7.70;3.50;;;11.40;99.90;;;11.32;100.00;102572.88;5143185;28;20059;-57
2022/11/11 09:16:26;;;;;;;8.90;3.40;;;11.40;99.90;;;11.36;100.00;102580.09;5152649;28;20074;-60
2022/11/11 09:19:18;;;;;;;9.77;4.07;;;11.40;99.90;;;11.36;100.00;102575.75;5163273;28;20053;-58
2022/11/11 09:22:08;;;;;;;7.97;3.53;;;11.40;99.90;;;11.35;100.00;102578.28;5152514;28;20049;-59
2022/11/11 09:24:59;;;;;;;10.07;3.90;;;11.40;99.90;;;11.36;100.00;102574.88;5165944;28;20068;-58
2022/11/11 09:27:58;;;;;;;8.82;2.92;;;11.40;99.90;;;11.46;100.00;102585.03;5165808;28;20057;-61
2022/11/11 09:30:49;;;;;;;6.47;2.83;;;11.40;99.90;;;11.61;100.00;102585.06;5165973;28;20065;-57
2022/11/11 09:33:39;;;;;;;7.32;3.00;;;11.50;99.90;;;11.76;100.00;102590.28;5165539;28;20140;-61
2022/11/11 09:36:31;;;;;;;7.00;2.75;;;11.70;99.90;;;11.91;100.00;102593.81;5165363;28;20072;-61
2022/11/11 09:39:22;;;;;;;8.15;2.95;;;11.80;99.90;;;11.98;100.00;102593.34;5164835;28;20073;-59
2022/11/11 09:42:21;;;;;;;11.02;3.75;;;11.80;99.90;;;12.06;100.00;102594.72;5147347;28;20129;-57
2022/11/11 09:45:20;;;;;;;7.57;3.47;;;11.90;99.90;;;12.18;100.00;102594.47;5145236;28;20043;-57
2022/11/11 09:48:34;;;;;;;9.25;3.05;;;12.00;99.90;;;12.16;100.00;102597.00;5145296;28;20133;-57
2022/11/11 09:51:32;;;;;;;7.90;3.35;;;12.10;99.90;;;12.15;100.00;102597.84;5153486;28;20060;-58
2022/11/11 09:54:33;;;;;;;7.55;2.95;;;12.10;99.90;;;12.14;100.00;102593.41;5165628;28;20574;-57
2022/11/11 09:57:35;;;;;;;7.13;3.22;;;12.10;99.90;;;12.22;100.00;102588.63;5179575;23;20054;-84
2022/11/11 10:00:31;;;;;;;7.03;3.15;;;12.10;99.90;;;12.45;100.00;102598.66;5145495;28;20066;-82
2022/11/11 10:03:25;;;;;;;6.55;3.13;;;12.40;99.90;;;12.51;100.00;102595.47;5157364;28;20444;-85
2022/11/11 10:06:22;;;;;;;10.02;3.30;;;12.50;99.90;;;12.50;100.00;102588.44;5160396;28;20100;-82
2022/11/11 10:09:22;;;;;;;5.30;2.72;;;12.50;99.90;;;12.55;100.00;102581.75;5148867;28;20058;-85
2022/11/11 10:12:15;;;;;;;6.75;3.38;;;12.50;99.90;;;12.68;100.00;102576.38;5152748;28;20106;-85
2022/11/11 10:15:11;;;;;;;4.80;2.55;;;12.60;99.90;;;12.89;100.00;102579.25;5149533;28;20070;-85
2022/11/11 10:18:25;;;;;;;6.53;2.80;;;12.70;99.90;;;12.96;100.00;102575.22;5149371;28;20061;-84
2022/11/11 10:21:23;;;;;;;5.60;2.15;;;12.80;99.90;;;13.04;100.00;102573.94;5149497;28;20514;-85
2022/11/11 10:24:21;;;;;;;6.72;2.40;;;12.90;99.90;;;13.15;100.00;102579.72;5148555;28;20222;-86
2022/11/11 10:27:21;;;;;;;6.10;2.35;;;13.00;99.90;;;13.38;100.00;102567.88;5149070;28;20070;-86
2022/11/11 10:30:19;;;;;;;6.07;2.28;;;13.20;99.90;;;13.61;100.00;102575.16;5149155;28;20117;-87
2022/11/11 10:33:17;;;;;;;8.40;2.72;;;13.50;99.90;;;13.80;100.00;102572.66;5149736;28;20063;-88
2022/11/11 10:36:16;;;;;;;7.20;2.50;;;13.70;99.90;;;13.97;100.00;102576.13;5148925;28;20062;-89
2022/11/11 10:39:15;;;;;;;7.25;2.22;;;13.80;99.90;;;14.24;100.00;102578.28;5148863;28;20051;-88
2022/11/11 10:42:17;;;;;;;4.60;2.33;;;14.10;99.90;;;14.50;100.00;102569.06;5135377;28;20106;-87
2022/11/11 10:45:16;;;;;;;8.05;3.05;;;14.30;99.90;;;14.51;100.00;102573.47;5144357;28;20043;-84
2022/11/11 10:48:10;;;;;;;5.25;2.40;;;14.40;99.90;;;14.56;100.00;102569.34;5148668;28;20053;-83
2022/11/11 10:51:03;;;;;;;5.85;2.17;;;14.40;99.90;;;14.60;100.00;102568.63;5147042;28;20065;-84
2022/11/11 10:54:02;;;;;;;5.15;2.70;;;14.40;99.90;;;14.54;98.80;102576.22;5153254;28;20061;-84
2022/11/11 10:57:01;;;;;;;7.22;2.45;;;14.40;99.90;;;14.51;99.26;102574.38;5150461;28;20050;-84
2022/11/11 10:59:58;;;;;;;6.20;2.20;;;14.30;99.90;;;14.52;99.63;102577.88;5147858;28;20120;-83
2022/11/11 11:02:56;;;;;;;4.55;2.22;;;14.30;99.90;;;14.61;100.00;102571.34;5149008;28;20050;-85
2022/11/11 11:05:52;;;;;;;4.78;1.77;;;14.40;99.90;;;14.75;100.00;102561.50;5148415;28;20049;-84
2022/11/11 11:08:47;;;;;;;3.60;2.20;;;14.50;99.90;;;14.77;99.26;102559.81;5148499;28;20181;-84
2022/11/11 11:11:43;;;;;;;6.28;2.40;;;14.60;99.90;;;14.70;98.51;102560.38;5148399;28;20109;-84
2022/11/11 11:14:41;;;;;;;4.40;1.98;;;14.50;99.90;;;14.62;98.81;102567.00;5146764;28;20073;-82
2022/11/11 11:17:38;;;;;;;7.95;2.42;;;14.50;99.90;;;14.66;98.89;102553.16;5146936;28;20093;-82
2022/11/11 11:20:29;;;;;;;6.40;2.17;;;14.50;99.90;;;14.65;98.95;102556.63;5147076;28;20531;-83
2022/11/11 11:23:37;;;;;;;4.32;2.13;;;14.50;99.90;;;14.68;98.55;102556.78;5147301;28;20078;-83
2022/11/11 11:26:43;;;;;;;;;;;14.50;99.90;;;14.77;99.36;102551.94;5148345;28;20070;-84
2022/11/11 11:29:37;;;;;;;4.45;1.70;;;14.50;99.90;;;14.90;98.83;102546.41;5147030;28;20084;-83
2022/11/11 11:32:29;;;;;;;5.43;2.10;;;14.60;99.90;;;14.98;97.70;102548.47;5147511;28;20112;-83
2022/11/11 11:35:34;;;;;;;4.32;1.90;;;14.70;99.90;;;14.99;97.69;102551.16;5147357;28;20145;-83
2022/11/11 11:38:41;;;;;;;4.10;2.10;;;14.70;99.90;;;14.88;97.04;102550.72;5147245;28;20057;-83
2022/11/11 11:41:40;;;;;;;3.85;1.92;;;14.70;99.90;;;14.93;98.20;102551.81;5142211;28;20429;-84
2022/11/11 11:44:33;;;;;;;3.38;1.85;;;14.70;99.90;;;15.00;97.15;102546.84;5153784;28;20177;-83
2022/11/11 11:47:41;;;;;;;6.18;1.88;;;14.70;99.90;;;14.99;96.62;102551.16;5150150;28;20058;-83
2022/11/11 11:50:42;;;;;;;5.10;1.83;;;14.80;99.90;;;15.03;95.99;102552.22;5147277;28;20049;-83
2022/11/11 11:53:47;;;;;;;5.18;1.73;;;14.80;99.90;;;15.04;94.89;102543.50;5147113;28;20057;-82
2022/11/11 11:56:42;;;;;;;3.40;1.70;;;14.80;99.90;;;15.05;95.17;102538.31;5127753;28;20058;-82
2022/11/11 11:59:40;;;;;;;3.28;1.45;;;14.80;99.90;;;15.07;95.31;102544.56;5127802;28;20421;-84
2022/11/11 12:03:05;;;;;;;3.03;1.42;;;14.80;99.90;;;15.02;95.63;102539.94;5144954;28;20102;-82
2022/11/11 12:06:05;;;;;;;3.80;1.63;;;14.80;99.90;;;15.01;95.37;102536.41;5157311;28;20255;-83
2022/11/11 12:09:05;;;;;;;;;;;14.80;99.90;;;15.04;94.98;102526.00;5160704;28;20078;-84
2022/11/11 12:12:05;;;;;;;3.75;1.60;;;14.80;99.90;;;15.09;94.94;102523.59;5151133;28;19953;-83
2022/11/11 12:15:14;;;;;;;4.57;1.67;;;14.90;99.90;;;15.12;95.07;102521.09;5149328;28;20414;-83
2022/11/11 12:18:40;;;;;;;4.15;1.67;;;14.90;99.90;;;15.21;95.28;102524.13;5152248;28;20051;-83
2022/11/11 12:21:39;;;;;;;;;;;14.90;99.90;;;15.17;94.83;102527.44;5151268;28;20424;-84
2022/11/11 12:24:52;;;;;;;3.03;1.45;;;14.90;99.90;;;15.26;94.23;102519.97;5145707;28;19936;-83
2022/11/11 12:27:57;;;;;;;4.65;1.30;;;15.00;99.90;;;15.30;93.90;102521.00;5164591;28;20093;-83
2022/11/11 12:30:56;;;;;;;4.20;1.52;;;15.00;99.90;;;15.36;94.03;102527.41;5170084;28;20061;-84
2022/11/11 12:34:02;;;;;;;2.72;1.30;;;15.10;99.90;;;15.47;93.34;102518.25;5164331;28;20054;-82
2022/11/11 12:37:04;;;;;;;3.78;1.50;;;15.20;99.90;;;15.52;92.49;102517.53;5147645;28;20030;-84
2022/11/11 12:40:16;;;;;;;2.83;1.20;;;15.20;99.90;;;15.54;92.71;102511.53;5154562;28;20128;-84
2022/11/11 12:43:19;;;;;;;3.03;1.50;;;15.30;99.90;;;15.58;92.59;102508.16;5130785;28;20055;-84
2022/11/11 12:46:18;;;;;;;3.78;1.52;;;15.30;99.90;;;15.68;92.63;102504.25;5130359;28;20651;-84
2022/11/11 12:49:30;;;;;;;3.63;1.30;;;15.40;99.90;;;15.75;92.18;102511.53;5130128;29;20174;-83
2022/11/11 12:52:37;;;;;;;3.58;1.60;;;15.40;99.90;;;15.72;91.11;102506.16;5130512;28;20062;-84
2022/11/11 12:55:37;;;;;;;4.72;2.20;;;15.50;99.90;;;15.86;100.00;102509.34;5130977;28;20481;-82
2022/11/11 12:58:38;;;;;;;2.00;1.60;;;15.60;99.90;;;16.26;100.00;102496.03;5130219;29;20069;-85
2022/11/11 13:01:48;;;;;;;2.05;1.50;;;16.00;99.90;;;16.70;100.00;102494.22;5131084;28;20102;-84
2022/11/11 13:04:55;;;;;;;2.88;1.48;;;16.50;99.90;;;16.88;94.67;102489.59;5130796;28;20061;-83
2022/11/11 13:08:38;;;;;;;2.95;1.30;;;16.70;99.90;;;17.04;94.78;102497.22;5131299;28;20121;-87
2022/11/11 13:11:38;;;;;;;3.85;1.30;;;16.90;99.90;;;17.28;94.99;102496.28;5132471;28;20051;-87